Time;durP1;ratioP1;P1;durP2;ratioP2;P2;SDS_P1;SDS_P2;PMS_P1;PMS_P2;Temp;Humidity;BMP_temperature;BMP_pressure;BME280_temperature;BME280_humidity;BME280_pressure;Samples;Min_cycle;Max_cycle;Signal;HPM_P1;HPM_P2
2021/12/03 00:01:30;;;;;;;0.10;0.10;;;;;;;;;;5015919;28;20128;-88
2021/12/03 00:03:56;;;;;;;0.10;0.10;;;;;;;;;;5016247;28;20096;-88
2021/12/03 00:06:22;;;;;;;0.10;0.10;;;;;;;;;;5015919;28;20461;-88
2021/12/03 00:08:48;;;;;;;0.10;0.10;;;;;;;;;;4999398;28;20061;-88
2021/12/03 00:11:14;;;;;;;0.10;0.10;;;;;;;;;;4999564;28;20046;-88
2021/12/03 00:13:41;;;;;;;0.10;0.10;;;;;;;;;;4999777;28;20045;-89
2021/12/03 00:16:07;;;;;;;0.00;0.00;;;;;;;;;;4999321;28;20088;-88
2021/12/03 00:18:36;;;;;;;0.00;0.00;;;;;;;;;;5015619;28;20049;-88
2021/12/03 00:21:04;;;;;;;0.10;0.10;;;;;;;;;;5015929;28;20079;-88
2021/12/03 00:23:30;;;;;;;0.00;0.00;;;;;;;;;;5015449;28;20077;-88
2021/12/03 00:25:57;;;;;;;0.10;0.10;;;;;;;;;;5015542;28;20087;-88
2021/12/03 00:28:23;;;;;;;0.10;0.10;;;;;;;;;;4999272;28;20073;-88
2021/12/03 00:30:48;;;;;;;0.10;0.10;;;;;;;;;;4999419;28;20097;-87
2021/12/03 00:33:14;;;;;;;0.00;0.00;;;;;;;;;;5015386;28;20508;-88
2021/12/03 00:35:40;;;;;;;0.10;0.10;;;;;;;;;;5031725;28;20045;-87
2021/12/03 00:38:06;;;;;;;0.10;0.10;;;;;;;;;;5031731;28;20087;-88
2021/12/03 00:40:34;;;;;;;0.10;0.10;;;;;;;;;;4998874;28;20044;-88
2021/12/03 00:43:00;;;;;;;0.00;0.00;;;;;;;;;;5015177;28;20507;-88
2021/12/03 00:45:26;;;;;;;0.10;0.10;;;;;;;;;;5015181;28;20044;-88
2021/12/03 00:47:52;;;;;;;0.10;0.10;;;;;;;;;;4998722;28;20041;-88
2021/12/03 00:50:19;;;;;;;0.00;0.00;;;;;;;;;;4998901;28;20072;-88
2021/12/03 00:52:45;;;;;;;0.00;0.00;;;;;;;;;;5015099;28;20037;-88
2021/12/03 00:55:11;;;;;;;0.10;0.10;;;;;;;;;;4998566;28;20052;-87
2021/12/03 00:57:37;;;;;;;0.10;0.10;;;;;;;;;;5014963;28;20496;-88
2021/12/03 01:00:04;;;;;;;0.10;0.10;;;;;;;;;;5014701;28;20481;-88
2021/12/03 01:02:30;;;;;;;0.10;0.10;;;;;;;;;;5014800;28;20095;-88
2021/12/03 01:04:56;;;;;;;0.10;0.10;;;;;;;;;;4998364;28;20461;-87
2021/12/03 01:07:22;;;;;;;0.10;0.10;;;;;;;;;;5014693;28;20489;-88
2021/12/03 01:09:48;;;;;;;0.10;0.10;;;;;;;;;;5014643;28;20519;-88
2021/12/03 01:12:14;;;;;;;0.10;0.10;;;;;;;;;;4998367;28;20045;-88
2021/12/03 01:14:40;;;;;;;0.00;0.00;;;;;;;;;;5014797;28;20081;-88
2021/12/03 01:17:06;;;;;;;0.10;0.10;;;;;;;;;;5014144;28;20089;-87
2021/12/03 01:19:32;;;;;;;0.00;0.00;;;;;;;;;;5014523;28;20041;-87
2021/12/03 01:21:57;;;;;;;0.10;0.10;;;;;;;;;;5014841;28;20077;-87
2021/12/03 01:24:23;;;;;;;0.10;0.10;;;;;;;;;;5030782;28;20505;-87
2021/12/03 01:26:54;;;;;;;0.10;0.10;;;;;;;;;;5014388;28;20487;-88
2021/12/03 01:29:20;;;;;;;0.00;0.00;;;;;;;;;;5030821;28;20088;-88
2021/12/03 01:31:46;;;;;;;0.10;0.10;;;;;;;;;;5030896;28;20042;-87
2021/12/03 01:34:12;;;;;;;0.00;0.00;;;;;;;;;;4998183;28;20438;-88
2021/12/03 01:36:41;;;;;;;0.10;0.10;;;;;;;;;;5030727;28;20453;-87
2021/12/03 01:39:07;;;;;;;0.10;0.10;;;;;;;;;;5030459;28;20041;-87
2021/12/03 01:41:33;;;;;;;0.10;0.10;;;;;;;;;;5014383;28;20632;-87
2021/12/03 01:44:03;;;;;;;0.10;0.10;;;;;;;;;;5014090;28;20038;-89
2021/12/03 01:46:29;;;;;;;0.10;0.10;;;;;;;;;;4998678;28;20500;-88
2021/12/03 01:48:55;;;;;;;0.00;0.00;;;;;;;;;;5030603;28;20049;-87
2021/12/03 01:51:21;;;;;;;0.10;0.10;;;;;;;;;;5014241;28;20124;-87
2021/12/03 01:53:47;;;;;;;0.10;0.10;;;;;;;;;;5014341;28;20053;-87
2021/12/03 01:56:14;;;;;;;0.10;0.10;;;;;;;;;;4997916;28;20150;-87
2021/12/03 01:58:40;;;;;;;0.00;0.00;;;;;;;;;;5030516;28;20481;-91
2021/12/03 02:01:07;;;;;;;0.10;0.10;;;;;;;;;;4998136;28;20479;-87
2021/12/03 02:03:36;;;;;;;0.10;0.10;;;;;;;;;;4997934;28;20037;-87
2021/12/03 02:06:02;;;;;;;0.00;0.00;;;;;;;;;;4997661;28;20044;-88
2021/12/03 02:08:28;;;;;;;0.10;0.10;;;;;;;;;;5014127;28;20037;-87
2021/12/03 02:10:54;;;;;;;0.00;0.00;;;;;;;;;;4997807;28;20064;-87
2021/12/03 02:13:20;;;;;;;0.00;0.00;;;;;;;;;;5014183;28;20057;-88
2021/12/03 02:15:46;;;;;;;0.05;0.05;;;;;;;;;;4999238;28;20052;-88
2021/12/03 02:18:12;;;;;;;0.00;0.00;;;;;;;;;;5017577;28;20045;-89
2021/12/03 02:20:45;;;;;;;0.10;0.10;;;;;;;;;;5020127;28;20123;-88
2021/12/03 02:23:12;;;;;;;0.10;0.10;;;;;;;;;;5021218;28;20040;-88
2021/12/03 02:25:38;;;;;;;2.92;0.20;;;;;;;;;;5005051;28;20041;-88
2021/12/03 02:28:04;;;;;;;0.35;0.35;;;;;;;;;;5021155;28;20060;-88
2021/12/03 02:30:30;;;;;;;0.00;0.00;;;;;;;;;;5021124;28;20123;-88
2021/12/03 02:32:56;;;;;;;0.10;0.10;;;;;;;;;;5021006;28;20338;-88
2021/12/03 02:35:22;;;;;;;0.10;0.10;;;;;;;;;;5020972;28;20122;-89
2021/12/03 02:37:48;;;;;;;0.00;0.00;;;;;;;;;;5021253;28;20496;-88
2021/12/03 02:40:14;;;;;;;0.10;0.10;;;;;;;;;;5020822;28;20094;-88
2021/12/03 02:42:41;;;;;;;0.00;0.00;;;;;;;;;;5004511;28;20041;-88
2021/12/03 02:45:07;;;;;;;0.10;0.10;;;;;;;;;;5004355;28;20033;-89
2021/12/03 02:47:33;;;;;;;0.10;0.10;;;;;;;;;;5020580;28;20040;-89
2021/12/03 02:49:59;;;;;;;0.00;0.00;;;;;;;;;;5020662;28;20465;-88
2021/12/03 02:52:25;;;;;;;0.10;0.10;;;;;;;;;;5020472;28;20076;-89
2021/12/03 02:54:50;;;;;;;0.00;0.00;;;;;;;;;;5004312;28;20115;-89
2021/12/03 02:57:16;;;;;;;0.10;0.10;;;;;;;;;;5020906;28;20060;-89
2021/12/03 02:59:42;;;;;;;0.10;0.10;;;;;;;;;;5020558;28;20135;-89
2021/12/03 03:02:08;;;;;;;0.00;0.00;;;;;;;;;;5020675;28;20128;-88
2021/12/03 03:04:34;;;;;;;0.10;0.10;;;;;;;;;;5003838;28;20041;-88
2021/12/03 03:07:00;;;;;;;0.10;0.10;;;;;;;;;;5020437;28;20502;-87
2021/12/03 03:09:26;;;;;;;0.00;0.00;;;;;;;;;;5036577;28;20124;-87
2021/12/03 03:11:53;;;;;;;0.10;0.10;;;;;;;;;;5020578;28;20040;-87
2021/12/03 03:14:19;;;;;;;0.08;0.08;;;;;;;;;;5020327;28;20056;-87
2021/12/03 03:16:45;;;;;;;0.10;0.10;;;;;;;;;;5016629;28;20068;-87
2021/12/03 03:19:15;;;;;;;0.00;0.00;;;;;;;;;;5000263;28;20041;-88
2021/12/03 03:21:41;;;;;;;0.10;0.10;;;;;;;;;;5016726;28;20052;-88
2021/12/03 03:24:08;;;;;;;0.10;0.10;;;;;;;;;;5016594;28;20511;-88
2021/12/03 03:26:35;;;;;;;0.00;0.00;;;;;;;;;;5000389;28;20047;-88
2021/12/03 03:29:01;;;;;;;0.00;0.00;;;;;;;;;;5016511;28;20505;-88
2021/12/03 03:31:27;;;;;;;0.00;0.00;;;;;;;;;;5015173;28;20049;-88
2021/12/03 03:33:53;;;;;;;0.10;0.10;;;;;;;;;;5016210;28;20132;-88
2021/12/03 03:36:19;;;;;;;0.10;0.10;;;;;;;;;;5032771;28;20041;-88
2021/12/03 03:38:45;;;;;;;0.00;0.00;;;;;;;;;;5000131;28;20045;-89
2021/12/03 03:41:10;;;;;;;0.00;0.00;;;;;;;;;;5016324;28;20045;-88
2021/12/03 03:43:36;;;;;;;0.10;0.10;;;;;;;;;;5000158;28;20610;-90
2021/12/03 03:46:02;;;;;;;0.10;0.10;;;;;;;;;;4999901;28;20072;-90
2021/12/03 03:48:29;;;;;;;0.10;0.10;;;;;;;;;;4999985;28;20147;-90
2021/12/03 03:50:55;;;;;;;0.10;0.10;;;;;;;;;;5016639;28;20049;-90
2021/12/03 03:53:21;;;;;;;0.10;0.10;;;;;;;;;;5000267;28;20041;-90
2021/12/03 03:55:47;;;;;;;0.10;0.10;;;;;;;;;;5000306;28;20042;-88
2021/12/03 03:58:13;;;;;;;0.10;0.10;;;;;;;;;;4999779;28;20049;-90
2021/12/03 04:00:40;;;;;;;0.10;0.10;;;;;;;;;;5016318;28;20045;-91
2021/12/03 04:03:06;;;;;;;0.10;0.10;;;;;;;;;;5016335;28;20480;-91
2021/12/03 04:05:32;;;;;;;0.00;0.00;;;;;;;;;;5000157;28;20044;-91
2021/12/03 04:07:58;;;;;;;0.20;0.20;;;;;;;;;;5000294;28;20044;-91
2021/12/03 04:10:24;;;;;;;0.10;0.10;;;;;;;;;;5015793;28;20041;-89
2021/12/03 04:12:50;;;;;;;0.00;0.00;;;;;;;;;;5015875;28;20451;-89
2021/12/03 04:15:16;;;;;;;0.10;0.10;;;;;;;;;;5032150;28;20077;-89
2021/12/03 04:17:42;;;;;;;0.10;0.10;;;;;;;;;;5015440;28;20058;-90
2021/12/03 04:20:09;;;;;;;0.00;0.00;;;;;;;;;;5015610;28;20099;-89
2021/12/03 04:22:35;;;;;;;0.10;0.10;;;;;;;;;;5015576;28;20179;-89
2021/12/03 04:25:01;;;;;;;0.10;0.10;;;;;;;;;;4999293;28;20092;-90
2021/12/03 04:27:28;;;;;;;0.10;0.10;;;;;;;;;;4999279;28;20081;-91
2021/12/03 04:29:53;;;;;;;0.10;0.10;;;;;;;;;;4999303;28;20050;-89
2021/12/03 04:32:22;;;;;;;0.00;0.00;;;;;;;;;;4999476;28;20052;-90
2021/12/03 04:34:48;;;;;;;0.10;0.10;;;;;;;;;;4999940;28;20130;-92
2021/12/03 04:37:14;;;;;;;0.10;0.10;;;;;;;;;;4999447;28;20497;-91
2021/12/03 04:39:40;;;;;;;0.10;0.10;;;;;;;;;;5015731;28;20073;-89
2021/12/03 04:42:06;;;;;;;0.10;0.10;;;;;;;;;;4998371;28;20490;-89
2021/12/03 04:44:34;;;;;;;0.10;0.10;;;;;;;;;;4998770;28;20044;-90
2021/12/03 04:47:00;;;;;;;0.10;0.10;;;;;;;;;;4999031;28;20140;-90
2021/12/03 04:49:26;;;;;;;0.10;0.10;;;;;;;;;;4998962;28;20155;-90
2021/12/03 04:51:52;;;;;;;0.00;0.00;;;;;;;;;;4998941;28;20487;-89
2021/12/03 04:54:18;;;;;;;0.10;0.10;;;;;;;;;;4998934;28;20506;-89
2021/12/03 04:56:44;;;;;;;0.10;0.10;;;;;;;;;;4998524;28;20144;-89
2021/12/03 04:59:10;;;;;;;0.10;0.10;;;;;;;;;;5014858;28;20041;-90
2021/12/03 05:01:38;;;;;;;0.10;0.10;;;;;;;;;;4998244;28;20405;-90
2021/12/03 05:04:04;;;;;;;0.10;0.10;;;;;;;;;;4998703;28;20045;-90
2021/12/03 05:06:42;;;;;;;0.10;0.10;;;;;;;;;;5015049;28;20342;-89
2021/12/03 05:09:08;;;;;;;0.10;0.10;;;;;;;;;;5016283;28;20049;-88
2021/12/03 05:11:34;;;;;;;0.10;0.10;;;;;;;;;;5031166;28;20053;-89
2021/12/03 05:14:00;;;;;;;0.00;0.00;;;;;;;;;;5014638;28;20068;-88
2021/12/03 05:16:26;;;;;;;0.10;0.10;;;;;;;;;;4998235;28;20386;-89
2021/12/03 05:18:52;;;;;;;0.10;0.10;;;;;;;;;;5030982;28;20042;-88
2021/12/03 05:21:18;;;;;;;0.10;0.10;;;;;;;;;;5014606;28;20107;-89
2021/12/03 05:23:45;;;;;;;0.10;0.10;;;;;;;;;;5031023;28;20045;-88
2021/12/03 05:26:11;;;;;;;0.10;0.10;;;;;;;;;;5014331;28;20404;-89
2021/12/03 05:28:36;;;;;;;0.10;0.10;;;;;;;;;;5014825;28;20041;-89
2021/12/03 05:31:02;;;;;;;0.00;0.00;;;;;;;;;;5030800;28;20042;-90
2021/12/03 05:33:28;;;;;;;0.10;0.10;;;;;;;;;;5014762;28;20456;-91
2021/12/03 05:35:54;;;;;;;0.10;0.10;;;;;;;;;;5015400;28;20052;-90
2021/12/03 05:38:20;;;;;;;0.10;0.10;;;;;;;;;;4998652;28;20049;-90
2021/12/03 05:40:47;;;;;;;0.00;0.00;;;;;;;;;;5014717;28;20465;-90
2021/12/03 05:43:13;;;;;;;0.10;0.10;;;;;;;;;;5031194;28;20041;-91
2021/12/03 05:45:39;;;;;;;0.00;0.00;;;;;;;;;;4998527;28;20172;-90
2021/12/03 05:48:07;;;;;;;0.00;0.00;;;;;;;;;;5030976;28;20038;-91
2021/12/03 05:50:33;;;;;;;0.10;0.10;;;;;;;;;;4998507;28;20057;-87
2021/12/03 05:53:00;;;;;;;0.32;0.20;;;;;;;;;;5014406;28;20064;-87
2021/12/03 05:55:26;;;;;;;0.10;0.10;;;;;;;;;;4997246;28;20041;-88
2021/12/03 05:57:52;;;;;;;0.00;0.00;;;;;;;;;;5014506;28;20362;-88
2021/12/03 06:00:20;;;;;;;0.10;0.10;;;;;;;;;;5030319;28;20037;-87
2021/12/03 06:02:46;;;;;;;0.00;0.00;;;;;;;;;;5014098;28;20048;-88
2021/12/03 06:05:12;;;;;;;0.00;0.00;;;;;;;;;;5014060;28;20042;-88
2021/12/03 06:07:38;;;;;;;0.00;0.00;;;;;;;;;;5014137;28;20044;-89
2021/12/03 06:10:04;;;;;;;0.10;0.10;;;;;;;;;;4997743;28;20446;-89
2021/12/03 06:12:30;;;;;;;0.00;0.00;;;;;;;;;;5014283;28;20560;-89
2021/12/03 06:14:56;;;;;;;0.15;0.10;;;;;;;;;;5014441;28;20129;-89
2021/12/03 06:17:22;;;;;;;0.10;0.10;;;;;;;;;;5014030;28;20111;-90
2021/12/03 06:19:48;;;;;;;0.10;0.10;;;;;;;;;;5014356;28;20080;-89
2021/12/03 06:22:14;;;;;;;0.10;0.10;;;;;;;;;;4997675;28;20084;-90
2021/12/03 06:24:41;;;;;;;0.10;0.10;;;;;;;;;;5030772;28;20362;-89
2021/12/03 06:27:07;;;;;;;0.10;0.10;;;;;;;;;;5014125;28;20069;-89
2021/12/03 06:29:35;;;;;;;0.00;0.00;;;;;;;;;;5014329;28;20045;-89
2021/12/03 06:32:01;;;;;;;0.10;0.10;;;;;;;;;;4998101;28;20048;-89
2021/12/03 06:34:28;;;;;;;0.10;0.10;;;;;;;;;;5014090;28;20041;-89
2021/12/03 06:36:54;;;;;;;0.10;0.10;;;;;;;;;;5013987;28;20041;-90
2021/12/03 06:39:20;;;;;;;0.10;0.10;;;;;;;;;;4997460;28;20052;-90
2021/12/03 06:41:46;;;;;;;0.10;0.10;;;;;;;;;;4997662;28;20420;-89
2021/12/03 06:44:13;;;;;;;0.10;0.10;;;;;;;;;;5014080;28;20124;-90
2021/12/03 06:46:39;;;;;;;0.10;0.10;;;;;;;;;;4998112;28;20444;-89
2021/12/03 06:49:05;;;;;;;0.10;0.10;;;;;;;;;;5014037;28;20077;-90
2021/12/03 06:51:31;;;;;;;0.10;0.10;;;;;;;;;;4997844;28;20033;-90
2021/12/03 06:54:02;;;;;;;0.10;0.10;;;;;;;;;;5014124;28;20128;-89
2021/12/03 06:56:52;;;;;;;0.10;0.10;;;;;;;;;;4998783;28;20068;-90
2021/12/03 06:59:19;;;;;;;0.10;0.10;;;;;;;;;;5000217;28;20547;-90
2021/12/03 07:01:45;;;;;;;0.10;0.10;;;;;;;;;;4997667;28;20052;-89
2021/12/03 07:04:11;;;;;;;0.38;0.38;;;;;;;;;;4997498;28;20045;-89
2021/12/03 07:06:37;;;;;;;0.10;0.10;;;;;;;;;;5000178;28;20049;-89
2021/12/03 07:09:03;;;;;;;0.45;0.45;;;;;;;;;;5017329;28;20060;-88
2021/12/03 07:11:29;;;;;;;0.10;0.10;;;;;;;;;;5017293;28;20136;-87
2021/12/03 07:13:58;;;;;;;0.10;0.10;;;;;;;;;;5033243;28;20068;-87
2021/12/03 07:16:24;;;;;;;0.10;0.10;;;;;;;;;;5033121;28;20520;-90
2021/12/03 07:18:50;;;;;;;0.10;0.10;;;;;;;;;;5017157;28;20103;-92
2021/12/03 07:21:16;;;;;;;0.10;0.10;;;;;;;;;;5017381;28;20540;-91
2021/12/03 07:23:42;;;;;;;0.00;0.00;;;;;;;;;;5000976;28;20401;-87
2021/12/03 07:26:08;;;;;;;0.10;0.10;;;;;;;;;;5000495;28;20044;-88
2021/12/03 07:28:34;;;;;;;0.10;0.10;;;;;;;;;;5000252;28;20116;-87
2021/12/03 07:31:00;;;;;;;0.10;0.10;;;;;;;;;;5000378;28;20045;-87
2021/12/03 07:33:28;;;;;;;0.10;0.10;;;;;;;;;;5016368;28;20403;-88
2021/12/03 07:35:54;;;;;;;0.10;0.10;;;;;;;;;;5000625;28;20068;-85
2021/12/03 07:38:20;;;;;;;0.05;0.05;;;;;;;;;;5032856;28;20049;-86
2021/12/03 07:40:48;;;;;;;0.10;0.10;;;;;;;;;;5016199;28;20037;-85
2021/12/03 07:43:16;;;;;;;0.10;0.10;;;;;;;;;;5016636;28;20059;-85
2021/12/03 07:45:42;;;;;;;0.10;0.10;;;;;;;;;;5000289;28;20072;-86
2021/12/03 07:48:08;;;;;;;0.10;0.10;;;;;;;;;;5000165;28;20053;-86
2021/12/03 07:50:36;;;;;;;0.10;0.10;;;;;;;;;;5033277;28;20053;-86
2021/12/03 07:53:03;;;;;;;0.10;0.10;;;;;;;;;;5000595;28;20079;-86
2021/12/03 07:55:29;;;;;;;0.00;0.00;;;;;;;;;;5000052;28;20045;-86
2021/12/03 07:57:55;;;;;;;0.10;0.10;;;;;;;;;;5032819;28;20451;-86
2021/12/03 08:00:21;;;;;;;0.10;0.10;;;;;;;;;;5016699;28;20045;-86
2021/12/03 08:02:47;;;;;;;0.10;0.10;;;;;;;;;;5018449;28;20053;-87
2021/12/03 08:05:13;;;;;;;0.10;0.10;;;;;;;;;;5022349;28;20041;-87
2021/12/03 08:07:40;;;;;;;0.10;0.10;;;;;;;;;;5047744;28;20059;-85
2021/12/03 08:10:06;;;;;;;0.10;0.10;;;;;;;;;;5030307;28;20052;-87
2021/12/03 08:12:32;;;;;;;0.00;0.00;;;;;;;;;;5038586;28;20025;-87
2021/12/03 08:14:58;;;;;;;0.10;0.10;;;;;;;;;;5016855;28;20037;-87
2021/12/03 08:17:24;;;;;;;0.10;0.10;;;;;;;;;;4998594;28;20061;-88
2021/12/03 08:19:50;;;;;;;0.10;0.10;;;;;;;;;;5016236;28;20405;-90
2021/12/03 08:22:16;;;;;;;0.00;0.00;;;;;;;;;;4999666;28;20037;-88
2021/12/03 08:24:43;;;;;;;0.10;0.10;;;;;;;;;;5015710;28;20044;-89
2021/12/03 08:27:09;;;;;;;0.10;0.10;;;;;;;;;;4999358;28;20041;-89
2021/12/03 08:29:36;;;;;;;0.10;0.10;;;;;;;;;;4999389;28;20041;-88
2021/12/03 08:32:02;;;;;;;0.10;0.10;;;;;;;;;;5015657;28;20124;-89
2021/12/03 08:34:28;;;;;;;0.20;0.20;;;;;;;;;;4999629;28;20099;-88
2021/12/03 08:36:54;;;;;;;0.10;0.10;;;;;;;;;;5015723;28;20045;-87
2021/12/03 08:39:21;;;;;;;0.35;0.25;;;;;;;;;;5015505;28;20049;-91
2021/12/03 08:41:48;;;;;;;0.10;0.10;;;;;;;;;;4999616;28;20388;-91
2021/12/03 08:44:14;;;;;;;0.10;0.10;;;;;;;;;;4999364;28;20493;-88
2021/12/03 08:46:40;;;;;;;0.10;0.10;;;;;;;;;;4999426;28;20307;-92
2021/12/03 08:49:16;;;;;;;0.08;0.08;;;;;;;;;;4999722;28;20041;-92
2021/12/03 08:56:53;;;;;;;0.00;0.00;;;;;;;;;;5017995;28;20129;-93
2021/12/03 08:59:20;;;;;;;0.08;0.08;;;;;;;;;;5000180;28;20045;-92
2021/12/03 09:01:46;;;;;;;0.10;0.10;;;;;;;;;;4999498;28;20045;-92
2021/12/03 09:04:14;;;;;;;0.17;0.13;;;;;;;;;;4999264;28;20038;-91
2021/12/03 09:06:40;;;;;;;0.00;0.00;;;;;;;;;;5015643;28;20042;-90
2021/12/03 09:09:07;;;;;;;0.10;0.10;;;;;;;;;;4999055;28;20144;-91
2021/12/03 09:11:36;;;;;;;0.00;0.00;;;;;;;;;;4999964;28;20489;-90
2021/12/03 09:14:06;;;;;;;0.10;0.10;;;;;;;;;;4999304;28;20088;-89
2021/12/03 09:16:32;;;;;;;0.20;0.10;;;;;;;;;;4999321;28;20093;-89
2021/12/03 09:19:05;;;;;;;0.10;0.10;;;;;;;;;;4998756;28;20060;-93
2021/12/03 09:21:34;;;;;;;0.10;0.10;;;;;;;;;;5014955;28;20508;-90
2021/12/03 09:24:07;;;;;;;0.00;0.00;;;;;;;;;;4999380;28;20674;-90
2021/12/03 09:26:38;;;;;;;0.10;0.10;;;;;;;;;;5014942;28;20100;-91
2021/12/03 09:29:06;;;;;;;0.10;0.10;;;;;;;;;;4999106;28;20088;-92
2021/12/03 09:31:35;;;;;;;0.10;0.10;;;;;;;;;;4998884;28;20404;-93
2021/12/03 09:34:01;;;;;;;0.10;0.10;;;;;;;;;;5014618;28;20208;-93
2021/12/03 09:36:27;;;;;;;0.10;0.10;;;;;;;;;;4998490;28;20457;-93
2021/12/03 09:38:53;;;;;;;0.10;0.10;;;;;;;;;;4998645;28;20130;-93
2021/12/03 09:41:20;;;;;;;0.10;0.10;;;;;;;;;;4999016;28;20045;-89
2021/12/03 09:43:47;;;;;;;0.10;0.10;;;;;;;;;;4998873;28;20083;-89
2021/12/03 09:46:18;;;;;;;0.10;0.10;;;;;;;;;;4997252;28;20040;-88
2021/12/03 09:51:24;;;;;;;0.10;0.10;;;;;;;;;;5014974;28;20045;-89
2021/12/03 09:54:35;;;;;;;0.10;0.10;;;;;;;;;;4998001;28;20045;-90
2021/12/03 09:56:39;;;;;;;0.32;0.32;;;;;;;;;;5009543;28;20081;-90
2021/12/03 10:01:43;;;;;;;0.10;0.10;;;;;;;;;;5014766;28;20077;-91
2021/12/03 10:09:14;;;;;;;0.00;0.00;;;;;;;;;;5016941;28;20041;-90
2021/12/03 10:13:08;;;;;;;0.70;0.30;;;;;;;;;;4995377;28;20159;-90
2021/12/03 10:15:39;;;;;;;0.10;0.10;;;;;;;;;;5017314;28;20481;-91
2021/12/03 10:18:09;;;;;;;0.10;0.10;;;;;;;;;;5017010;28;20044;-92
2021/12/03 10:29:17;;;;;;;0.10;0.10;;;;;;;;;;5033712;28;20399;-88
2021/12/03 10:32:16;;;;;;;0.10;0.10;;;;;;;;;;5033713;28;20040;-91
2021/12/03 10:40:25;;;;;;;0.10;0.10;;;;;;;;;;5011922;28;20139;-90
2021/12/03 10:43:12;;;;;;;0.10;0.10;;;;;;;;;;5021100;28;20053;-91
2021/12/03 10:51:18;;;;;;;0.00;0.00;;;;;;;;;;5021760;28;20179;-90
2021/12/03 10:53:57;;;;;;;0.10;0.10;;;;;;;;;;5020696;28;20041;-89
2021/12/03 10:56:53;;;;;;;0.00;0.00;;;;;;;;;;5020601;28;20067;-90
2021/12/03 10:59:40;;;;;;;0.20;0.20;;;;;;;;;;5036930;28;20055;-90
2021/12/03 11:05:16;;;;;;;0.20;0.20;;;;;;;;;;5038249;28;20049;-89
2021/12/03 11:35:03;;;;;;;0.00;0.00;;;;;;;;;;5003097;28;20423;-90
2021/12/03 11:37:43;;;;;;;0.00;0.00;;;;;;;;;;5004304;28;20046;-89
2021/12/03 11:43:17;;;;;;;0.05;0.05;;;;;;;;;;5001405;28;20079;-89
2021/12/03 12:31:23;;;;;;;0.10;0.10;;;;;;;;;;5001871;28;20053;-92
2021/12/03 12:57:15;;;;;;;0.10;0.10;;;;;;;;;;5020973;28;20060;-88
2021/12/03 13:22:09;;;;;;;0.00;0.00;;;;;;;;;;5020078;28;20052;-90
2021/12/03 14:05:27;;;;;;;0.10;0.10;;;;;;;;;;5000337;28;20041;-89
2021/12/03 14:31:30;;;;;;;0.10;0.10;;;;;;;;;;5003926;28;20057;-87
2021/12/03 14:54:24;;;;;;;0.00;0.00;;;;;;;;;;5023016;28;20045;-89
2021/12/03 14:57:11;;;;;;;0.10;0.10;;;;;;;;;;5006110;28;20090;-88
2021/12/03 14:59:50;;;;;;;0.00;0.00;;;;;;;;;;5020531;28;20068;-89
2021/12/03 15:02:27;;;;;;;0.10;0.10;;;;;;;;;;5003791;28;20052;-89
2021/12/03 15:07:39;;;;;;;0.10;0.10;;;;;;;;;;5020369;28;20056;-91
2021/12/03 15:10:09;;;;;;;0.00;0.00;;;;;;;;;;5019870;28;20044;-89
2021/12/03 15:29:32;;;;;;;0.15;0.15;;;;;;;;;;5022074;28;20044;-87
2021/12/03 15:32:06;;;;;;;0.10;0.10;;;;;;;;;;5024717;28;20089;-89
2021/12/03 15:54:36;;;;;;;0.10;0.10;;;;;;;;;;5021893;28;20045;-93
2021/12/03 16:04:54;;;;;;;0.10;0.10;;;;;;;;;;5021843;28;20047;-92
2021/12/03 16:07:58;;;;;;;0.00;0.00;;;;;;;;;;5019765;28;20048;-91
2021/12/03 16:10:32;;;;;;;0.17;0.17;;;;;;;;;;5023537;28;20040;-90
2021/12/03 16:13:17;;;;;;;0.10;0.10;;;;;;;;;;5004602;28;20123;-91
2021/12/03 16:51:27;;;;;;;0.10;0.10;;;;;;;;;;5020629;28;20488;-90
2021/12/03 16:53:57;;;;;;;0.10;0.10;;;;;;;;;;5002630;28;20491;-89
2021/12/03 16:56:27;;;;;;;0.00;0.00;;;;;;;;;;5003497;28;20060;-89
2021/12/03 16:58:54;;;;;;;0.10;0.10;;;;;;;;;;5003452;28;20100;-90
2021/12/03 17:01:39;;;;;;;0.10;0.10;;;;;;;;;;5002775;28;20049;-90
2021/12/03 17:15:12;;;;;;;0.00;0.00;;;;;;;;;;5020727;28;20088;-90
2021/12/03 17:47:46;;;;;;;0.10;0.10;;;;;;;;;;5015584;28;20046;-90
2021/12/03 17:50:05;;;;;;;0.10;0.10;;;;;;;;;;5012684;28;20057;-91
2021/12/03 18:00:33;;;;;;;0.10;0.10;;;;;;;;;;5029286;28;19929;-88
2021/12/03 18:03:14;;;;;;;0.00;0.00;;;;;;;;;;5018996;28;20044;-88
2021/12/03 18:44:43;;;;;;;0.10;0.10;;;;;;;;;;5014012;28;20471;-90
2021/12/03 18:57:18;;;;;;;0.10;0.10;;;;;;;;;;4996340;28;20052;-90
2021/12/03 18:59:53;;;;;;;0.00;0.00;;;;;;;;;;4995608;28;20148;-89
2021/12/03 19:02:21;;;;;;;0.10;0.10;;;;;;;;;;4998072;28;20049;-91
2021/12/03 19:04:54;;;;;;;0.10;0.10;;;;;;;;;;4999113;28;20042;-93
2021/12/03 19:07:26;;;;;;;0.10;0.10;;;;;;;;;;5000316;28;20342;-93
2021/12/03 19:09:56;;;;;;;0.10;0.10;;;;;;;;;;5000244;28;20054;-93
2021/12/03 19:12:29;;;;;;;0.10;0.10;;;;;;;;;;5016384;28;20038;-94
2021/12/03 19:14:57;;;;;;;0.10;0.10;;;;;;;;;;5000486;28;20061;-93
2021/12/03 19:17:25;;;;;;;0.10;0.10;;;;;;;;;;4999176;28;20528;-94
2021/12/03 19:19:56;;;;;;;0.10;0.10;;;;;;;;;;4999969;28;20042;-94
2021/12/03 19:22:22;;;;;;;0.38;0.38;;;;;;;;;;5000792;28;20038;-93
2021/12/03 19:34:05;;;;;;;0.00;0.00;;;;;;;;;;5997433;23;20108;-96
2021/12/03 19:46:05;;;;;;;0.00;0.00;;;;;;;;;;5888103;23;20832;-95
2021/12/03 19:51:32;;;;;;;0.17;0.17;;;;;;;;;;4880571;29;20053;-96
2021/12/03 20:07:01;;;;;;;0.10;0.10;;;;;;;;;;5834932;23;20056;-95
2021/12/03 20:09:35;;;;;;;0.10;0.10;;;;;;;;;;4854603;29;20079;-95
2021/12/03 20:12:19;;;;;;;0.10;0.10;;;;;;;;;;4869468;29;20056;-95
2021/12/03 20:20:17;;;;;;;0.10;0.10;;;;;;;;;;5645447;23;20053;-95
2021/12/03 20:30:03;;;;;;;0.10;0.10;;;;;;;;;;4872963;29;20138;-95
2021/12/03 20:37:23;;;;;;;0.00;0.00;;;;;;;;;;4865508;29;20049;-96
2021/12/03 20:39:55;;;;;;;0.25;0.20;;;;;;;;;;4852086;29;20075;-94
2021/12/03 20:42:32;;;;;;;0.10;0.10;;;;;;;;;;4851376;29;20045;-96
2021/12/03 20:50:51;;;;;;;0.13;0.10;;;;;;;;;;4869980;29;20056;-93
2021/12/03 21:09:46;;;;;;;0.10;0.10;;;;;;;;;;4865315;29;20052;-94
2021/12/03 21:12:22;;;;;;;0.10;0.10;;;;;;;;;;4848317;29;20053;-93
2021/12/03 21:15:05;;;;;;;0.20;0.20;;;;;;;;;;4847082;29;20057;-90
2021/12/03 21:22:33;;;;;;;0.25;0.25;;;;;;;;;;4862488;29;20049;-92
2021/12/03 21:25:05;;;;;;;0.10;0.10;;;;;;;;;;4850064;29;20037;-95
2021/12/03 21:27:32;;;;;;;0.10;0.10;;;;;;;;;;4848836;29;20055;-92
2021/12/03 21:32:36;;;;;;;0.10;0.10;;;;;;;;;;4862015;29;20060;-93
2021/12/03 21:38:07;;;;;;;0.10;0.10;;;;;;;;;;4864707;29;20049;-94
2021/12/03 21:43:18;;;;;;;0.00;0.00;;;;;;;;;;4865145;29;20073;-94
2021/12/03 21:45:44;;;;;;;0.10;0.10;;;;;;;;;;4846736;29;20045;-94
2021/12/03 21:48:10;;;;;;;0.10;0.10;;;;;;;;;;4846879;29;20045;-92
2021/12/03 21:50:36;;;;;;;0.10;0.10;;;;;;;;;;4847542;29;20136;-94
2021/12/03 21:53:03;;;;;;;0.10;0.10;;;;;;;;;;4847863;29;20125;-93
2021/12/03 21:55:31;;;;;;;0.10;0.10;;;;;;;;;;4847062;29;20446;-94
2021/12/03 21:58:01;;;;;;;0.10;0.10;;;;;;;;;;4846347;29;20386;-94
2021/12/03 22:00:27;;;;;;;0.10;0.10;;;;;;;;;;4846539;29;20108;-94
2021/12/03 22:02:53;;;;;;;0.10;0.10;;;;;;;;;;4846687;29;20080;-94
2021/12/03 22:05:19;;;;;;;0.00;0.00;;;;;;;;;;4846995;29;20536;-94
2021/12/03 22:07:45;;;;;;;0.10;0.10;;;;;;;;;;4847036;29;20041;-93
2021/12/03 22:10:11;;;;;;;0.30;0.30;;;;;;;;;;4846604;29;20159;-93
2021/12/03 22:12:38;;;;;;;0.10;0.10;;;;;;;;;;4846816;29;20045;-95
2021/12/03 22:15:04;;;;;;;0.10;0.10;;;;;;;;;;4846856;29;20080;-96
2021/12/03 22:17:34;;;;;;;0.10;0.10;;;;;;;;;;4846607;29;20131;-96
2021/12/03 22:20:03;;;;;;;0.10;0.10;;;;;;;;;;4846696;29;20056;-94
2021/12/03 22:22:29;;;;;;;0.10;0.10;;;;;;;;;;4846750;29;20087;-94
2021/12/03 22:24:55;;;;;;;0.10;0.10;;;;;;;;;;4846739;29;20049;-95
2021/12/03 22:27:22;;;;;;;0.00;0.00;;;;;;;;;;4846981;29;20076;-93
2021/12/03 22:29:52;;;;;;;0.10;0.10;;;;;;;;;;4846929;29;20056;-94
2021/12/03 22:32:18;;;;;;;0.00;0.00;;;;;;;;;;4846411;29;20044;-94
2021/12/03 22:34:44;;;;;;;0.35;0.35;;;;;;;;;;4846515;29;20052;-94
2021/12/03 22:37:10;;;;;;;0.30;0.10;;;;;;;;;;4848607;29;20045;-94
2021/12/03 22:39:37;;;;;;;0.00;0.00;;;;;;;;;;4849971;29;20141;-95
2021/12/03 22:42:09;;;;;;;0.00;0.00;;;;;;;;;;4851148;29;20091;-94
2021/12/03 22:44:35;;;;;;;0.40;0.40;;;;;;;;;;4850508;29;20088;-96
2021/12/03 22:52:38;;;;;;;0.10;0.10;;;;;;;;;;4867382;29;20493;-94
2021/12/03 22:55:04;;;;;;;0.10;0.10;;;;;;;;;;4850619;29;20044;-93
2021/12/03 22:57:30;;;;;;;0.10;0.10;;;;;;;;;;4849976;29;20049;-93
2021/12/03 22:59:57;;;;;;;0.10;0.10;;;;;;;;;;4850160;29;20041;-95
2021/12/03 23:02:23;;;;;;;0.10;0.10;;;;;;;;;;4850083;29;20049;-95
2021/12/03 23:04:49;;;;;;;0.00;0.00;;;;;;;;;;4850280;29;20101;-94
2021/12/03 23:07:15;;;;;;;0.10;0.10;;;;;;;;;;4850490;29;20049;-95
2021/12/03 23:09:41;;;;;;;0.10;0.10;;;;;;;;;;4849862;29;20072;-95
2021/12/03 23:12:07;;;;;;;0.00;0.00;;;;;;;;;;4850026;29;20045;-95
2021/12/03 23:14:33;;;;;;;0.00;0.00;;;;;;;;;;4849928;29;20560;-95
2021/12/03 23:17:00;;;;;;;0.10;0.10;;;;;;;;;;4849778;29;20048;-93
2021/12/03 23:19:29;;;;;;;0.10;0.10;;;;;;;;;;4864898;29;20097;-96
2021/12/03 23:21:55;;;;;;;0.00;0.00;;;;;;;;;;4849832;29;20129;-94
2021/12/03 23:24:21;;;;;;;0.15;0.15;;;;;;;;;;4849837;29;20475;-95
2021/12/03 23:26:48;;;;;;;0.20;0.20;;;;;;;;;;4849602;29;20486;-94
2021/12/03 23:29:14;;;;;;;0.10;0.10;;;;;;;;;;4849833;29;20124;-95